FCBB/BZV METAR and TAF weather

Enter ICAO airport designator
Station Type Date Time Source
FCBB METAR 2018/04/26 14:00 UTC NOAA

FCBB 261400Z 27005KT 9999 SCT016 32/22 Q1009 NOSIG


Station Type Date Time Source
FCBB Decoded METAR 2018/04/26 14:00 UTC NOAA

Brazzaville / Maya-Maya, Congo, Republic of the (FCBB) 04-15S 015-15E 316M
Apr 26, 2018 - 10:00 AM EDT / 2018.04.26 1400 UTC
Wind: from the W (270 degrees) at 6 MPH (5 KT):0
Visibility: greater than 7 mile(s):0
Sky conditions: partly cloudy
Temperature: 89 F (32 C)
Heat index: 95.0 F (35.0 C):1
Dew Point: 71 F (22 C)
Relative Humidity: 55%
Pressure (altimeter): 29.80 in. Hg (1009 hPa)
ob: FCBB 261400Z 27005KT 9999 SCT016 32/22 Q1009 NOSIG
cycle: 14

Station Type Date Time Source
FCBB TAF 2018/04/26 12:12 UTC NOAA

TAF TAF FCBB 261100Z 2612/2718 24004KT 9999 FEW013 BKN025
BECMG 2613/2615 SCT018 FEW030CB
TEMPO 2616/2619 TS
BECMG 2700/2702 4000 TSRA
BECMG 2705/2707 8000 NSW SCT013


Example: see airport list